sensor_id;sensor_type;location;lat;lon;timestamp;pressure;altitude;pressure_sealevel;temperature;humidity
75740;BME280;64357;51.344;6.550;2022-12-29T00:02:16;99968.28;;;10.89;84.24
75740;BME280;64357;51.344;6.550;2022-12-29T00:04:42;99967.00;;;10.94;84.13
75740;BME280;64357;51.344;6.550;2022-12-29T00:07:10;99961.00;;;10.84;84.88
75740;BME280;64357;51.344;6.550;2022-12-29T00:09:36;99954.63;;;10.89;84.94
75740;BME280;64357;51.344;6.550;2022-12-29T00:12:02;99950.03;;;10.95;84.11
75740;BME280;64357;51.344;6.550;2022-12-29T00:14:28;99945.97;;;10.97;84.15
75740;BME280;64357;51.344;6.550;2022-12-29T00:17:12;99948.63;;;10.99;84.12
75740;BME280;64357;51.344;6.550;2022-12-29T00:19:38;99945.31;;;11.00;83.47
75740;BME280;64357;51.344;6.550;2022-12-29T00:22:22;99939.81;;;11.05;83.34
75740;BME280;64357;51.344;6.550;2022-12-29T00:25:13;99941.84;;;11.09;83.27
75740;BME280;64357;51.344;6.550;2022-12-29T00:28:00;99943.25;;;11.16;83.67
75740;BME280;64357;51.344;6.550;2022-12-29T00:30:46;99926.25;;;11.06;84.03
75740;BME280;64357;51.344;6.550;2022-12-29T00:33:32;99925.25;;;11.04;84.24
75740;BME280;64357;51.344;6.550;2022-12-29T00:36:36;99919.25;;;11.04;84.78
75740;BME280;64357;51.344;6.550;2022-12-29T00:39:07;99936.47;;;10.96;85.13
75740;BME280;64357;51.344;6.550;2022-12-29T00:41:52;99925.78;;;10.80;86.98
75740;BME280;64357;51.344;6.550;2022-12-29T00:44:36;99927.94;;;10.75;88.10
75740;BME280;64357;51.344;6.550;2022-12-29T00:47:04;99920.91;;;10.62;88.94
75740;BME280;64357;51.344;6.550;2022-12-29T00:49:32;99919.47;;;10.66;89.21
75740;BME280;64357;51.344;6.550;2022-12-29T00:52:09;99918.72;;;10.57;88.92
75740;BME280;64357;51.344;6.550;2022-12-29T00:54:39;99904.81;;;10.74;87.05
75740;BME280;64357;51.344;6.550;2022-12-29T00:57:08;99904.81;;;10.74;85.86
75740;BME280;64357;51.344;6.550;2022-12-29T00:59:38;99899.69;;;10.84;85.15
75740;BME280;64357;51.344;6.550;2022-12-29T01:02:08;99905.31;;;10.90;84.86
75740;BME280;64357;51.344;6.550;2022-12-29T01:04:34;99889.97;;;11.10;83.00
75740;BME280;64357;51.344;6.550;2022-12-29T01:07:00;99877.06;;;11.09;83.23
75740;BME280;64357;51.344;6.550;2022-12-29T01:09:26;99891.25;;;11.15;82.21
75740;BME280;64357;51.344;6.550;2022-12-29T01:12:12;99893.25;;;11.19;82.02
75740;BME280;64357;51.344;6.550;2022-12-29T01:14:42;99890.69;;;11.30;81.10
75740;BME280;64357;51.344;6.550;2022-12-29T01:17:12;99893.50;;;11.33;81.17
75740;BME280;64357;51.344;6.550;2022-12-29T01:19:38;99901.94;;;11.32;80.92
75740;BME280;64357;51.344;6.550;2022-12-29T01:22:03;99895.50;;;11.37;80.44
75740;BME280;64357;51.344;6.550;2022-12-29T01:24:29;99880.66;;;11.43;79.80
75740;BME280;64357;51.344;6.550;2022-12-29T01:26:54;99882.72;;;11.47;79.79
75740;BME280;64357;51.344;6.550;2022-12-29T01:29:20;99894.22;;;11.42;79.35
75740;BME280;64357;51.344;6.550;2022-12-29T01:31:45;99889.28;;;11.33;80.04
75740;BME280;64357;51.344;6.550;2022-12-29T01:34:11;99880.16;;;11.47;79.51
75740;BME280;64357;51.344;6.550;2022-12-29T01:36:36;99867.66;;;11.40;79.19
75740;BME280;64357;51.344;6.550;2022-12-29T01:39:04;99862.13;;;11.45;78.92
75740;BME280;64357;51.344;6.550;2022-12-29T01:41:29;99862.25;;;11.47;78.90
75740;BME280;64357;51.344;6.550;2022-12-29T01:43:59;99870.28;;;11.52;78.97
75740;BME280;64357;51.344;6.550;2022-12-29T01:46:43;99867.84;;;11.53;78.34
75740;BME280;64357;51.344;6.550;2022-12-29T01:49:24;99866.97;;;11.53;78.20
75740;BME280;64357;51.344;6.550;2022-12-29T01:51:57;99851.91;;;11.45;77.99
75740;BME280;64357;51.344;6.550;2022-12-29T01:54:25;99840.53;;;11.42;78.66
75740;BME280;64357;51.344;6.550;2022-12-29T01:56:53;99851.94;;;11.35;78.62
75740;BME280;64357;51.344;6.550;2022-12-29T01:59:23;99859.47;;;11.44;78.16
75740;BME280;64357;51.344;6.550;2022-12-29T02:01:50;99871.34;;;11.43;77.57
75740;BME280;64357;51.344;6.550;2022-12-29T02:04:16;99873.13;;;11.44;77.94
75740;BME280;64357;51.344;6.550;2022-12-29T02:07:06;99874.16;;;11.46;77.30
75740;BME280;64357;51.344;6.550;2022-12-29T02:09:34;99861.66;;;11.39;77.44
75740;BME280;64357;51.344;6.550;2022-12-29T02:12:00;99860.59;;;11.47;76.84
75740;BME280;64357;51.344;6.550;2022-12-29T02:14:26;99873.00;;;11.43;77.42
75740;BME280;64357;51.344;6.550;2022-12-29T02:27:44;99857.13;;;11.47;76.58
75740;BME280;64357;51.344;6.550;2022-12-29T02:38:47;99830.06;;;11.39;76.54
75740;BME280;64357;51.344;6.550;2022-12-29T02:42:21;99844.34;;;11.47;75.83
75740;BME280;64357;51.344;6.550;2022-12-29T02:44:40;99834.38;;;11.50;75.59
75740;BME280;64357;51.344;6.550;2022-12-29T02:49:57;99828.84;;;11.56;74.81
75740;BME280;64357;51.344;6.550;2022-12-29T02:52:51;99819.16;;;11.52;75.42
75740;BME280;64357;51.344;6.550;2022-12-29T02:55:19;99815.03;;;11.54;75.20
75740;BME280;64357;51.344;6.550;2022-12-29T02:57:45;99834.72;;;11.55;75.56
75740;BME280;64357;51.344;6.550;2022-12-29T03:00:15;99811.69;;;11.55;75.68
75740;BME280;64357;51.344;6.550;2022-12-29T03:10:59;99800.66;;;11.66;74.85
75740;BME280;64357;51.344;6.550;2022-12-29T03:16:35;99814.13;;;11.53;76.00
75740;BME280;64357;51.344;6.550;2022-12-29T03:19:15;99798.44;;;11.48;76.12
75740;BME280;64357;51.344;6.550;2022-12-29T03:22:02;99802.44;;;11.45;76.30
75740;BME280;64357;51.344;6.550;2022-12-29T03:24:50;99790.00;;;11.50;76.42
75740;BME280;64357;51.344;6.550;2022-12-29T03:27:23;99792.28;;;11.57;75.90
75740;BME280;64357;51.344;6.550;2022-12-29T03:29:55;99789.59;;;11.55;75.99
75740;BME280;64357;51.344;6.550;2022-12-29T03:32:28;99792.38;;;11.58;76.36
75740;BME280;64357;51.344;6.550;2022-12-29T03:34:57;99794.94;;;11.58;76.53
75740;BME280;64357;51.344;6.550;2022-12-29T03:37:27;99803.91;;;11.53;77.44
75740;BME280;64357;51.344;6.550;2022-12-29T03:39:54;99793.94;;;11.56;77.11
75740;BME280;64357;51.344;6.550;2022-12-29T03:42:26;99795.06;;;11.38;77.96
75740;BME280;64357;51.344;6.550;2022-12-29T03:44:55;99779.53;;;11.46;77.45
75740;BME280;64357;51.344;6.550;2022-12-29T03:47:22;99778.38;;;11.43;77.71
75740;BME280;64357;51.344;6.550;2022-12-29T03:49:50;99784.13;;;11.51;77.82
75740;BME280;64357;51.344;6.550;2022-12-29T03:52:18;99776.59;;;11.42;77.48
75740;BME280;64357;51.344;6.550;2022-12-29T03:54:45;99775.19;;;11.45;78.11
75740;BME280;64357;51.344;6.550;2022-12-29T03:57:12;99766.16;;;11.39;78.75
75740;BME280;64357;51.344;6.550;2022-12-29T04:00:00;99761.44;;;11.33;79.35
75740;BME280;64357;51.344;6.550;2022-12-29T04:02:46;99758.00;;;11.33;79.23
75740;BME280;64357;51.344;6.550;2022-12-29T04:05:12;99752.88;;;11.33;79.24
75740;BME280;64357;51.344;6.550;2022-12-29T04:07:38;99745.47;;;11.26;79.79
75740;BME280;64357;51.344;6.550;2022-12-29T04:10:08;99744.19;;;11.31;78.88
75740;BME280;64357;51.344;6.550;2022-12-29T04:12:34;99751.59;;;11.38;78.36
75740;BME280;64357;51.344;6.550;2022-12-29T04:15:01;99765.06;;;11.47;77.77
75740;BME280;64357;51.344;6.550;2022-12-29T04:17:27;99754.06;;;11.48;77.66
75740;BME280;64357;51.344;6.550;2022-12-29T04:19:53;99756.09;;;11.52;77.69
75740;BME280;64357;51.344;6.550;2022-12-29T04:22:38;99745.34;;;11.56;76.98
75740;BME280;64357;51.344;6.550;2022-12-29T04:25:05;99754.78;;;11.57;77.15
75740;BME280;64357;51.344;6.550;2022-12-29T04:27:34;99764.66;;;11.53;77.11
75740;BME280;64357;51.344;6.550;2022-12-29T04:29:59;99766.28;;;11.62;76.39
75740;BME280;64357;51.344;6.550;2022-12-29T04:32:29;99769.84;;;11.64;76.27
75740;BME280;64357;51.344;6.550;2022-12-29T04:34:57;99769.19;;;11.67;75.68
75740;BME280;64357;51.344;6.550;2022-12-29T04:37:22;99765.97;;;11.69;75.51
75740;BME280;64357;51.344;6.550;2022-12-29T04:39:47;99776.22;;;11.69;75.59
75740;BME280;64357;51.344;6.550;2022-12-29T04:42:14;99778.25;;;11.73;75.28
75740;BME280;64357;51.344;6.550;2022-12-29T04:44:40;99778.66;;;11.68;75.37
75740;BME280;64357;51.344;6.550;2022-12-29T04:47:05;99769.50;;;11.82;73.87
75740;BME280;64357;51.344;6.550;2022-12-29T04:49:30;99779.84;;;11.83;74.17
75740;BME280;64357;51.344;6.550;2022-12-29T04:51:56;99766.53;;;11.87;72.93
75740;BME280;64357;51.344;6.550;2022-12-29T04:54:22;99773.84;;;11.83;73.28
75740;BME280;64357;51.344;6.550;2022-12-29T04:56:49;99770.75;;;11.87;73.22
75740;BME280;64357;51.344;6.550;2022-12-29T04:59:15;99774.47;;;11.80;72.98
75740;BME280;64357;51.344;6.550;2022-12-29T05:01:45;99775.78;;;11.75;73.18
75740;BME280;64357;51.344;6.550;2022-12-29T05:04:10;99789.84;;;11.80;73.13
75740;BME280;64357;51.344;6.550;2022-12-29T05:06:35;99793.81;;;11.77;72.36
75740;BME280;64357;51.344;6.550;2022-12-29T05:09:01;99791.66;;;11.81;72.17
75740;BME280;64357;51.344;6.550;2022-12-29T05:11:26;99794.84;;;11.79;71.96
75740;BME280;64357;51.344;6.550;2022-12-29T05:13:51;99809.41;;;11.80;71.22
75740;BME280;64357;51.344;6.550;2022-12-29T05:16:17;99800.47;;;11.74;70.48
75740;BME280;64357;51.344;6.550;2022-12-29T05:18:42;99794.47;;;11.74;70.92
75740;BME280;64357;51.344;6.550;2022-12-29T05:21:10;99798.97;;;11.66;69.98
75740;BME280;64357;51.344;6.550;2022-12-29T05:23:37;99802.97;;;11.63;69.75
75740;BME280;64357;51.344;6.550;2022-12-29T05:26:03;99810.59;;;11.51;70.34
75740;BME280;64357;51.344;6.550;2022-12-29T05:28:28;99813.06;;;11.39;71.39
75740;BME280;64357;51.344;6.550;2022-12-29T05:30:53;99820.00;;;11.30;71.79
75740;BME280;64357;51.344;6.550;2022-12-29T05:33:19;99803.03;;;11.20;72.66
75740;BME280;64357;51.344;6.550;2022-12-29T05:35:45;99824.91;;;11.17;73.64
75740;BME280;64357;51.344;6.550;2022-12-29T05:38:10;99822.06;;;11.14;74.13
75740;BME280;64357;51.344;6.550;2022-12-29T05:40:38;99806.81;;;10.93;75.25
75740;BME280;64357;51.344;6.550;2022-12-29T05:43:05;99829.97;;;10.85;75.84
75740;BME280;64357;51.344;6.550;2022-12-29T05:45:31;99834.31;;;10.76;76.45
75740;BME280;64357;51.344;6.550;2022-12-29T05:47:56;99835.31;;;10.78;77.21
75740;BME280;64357;51.344;6.550;2022-12-29T05:50:21;99832.91;;;10.69;77.64
75740;BME280;64357;51.344;6.550;2022-12-29T05:52:47;99825.38;;;10.71;77.99
75740;BME280;64357;51.344;6.550;2022-12-29T05:55:12;99832.28;;;10.61;78.60
75740;BME280;64357;51.344;6.550;2022-12-29T05:57:40;99833.03;;;10.60;79.04
75740;BME280;64357;51.344;6.550;2022-12-29T06:00:06;99843.41;;;10.52;80.00
75740;BME280;64357;51.344;6.550;2022-12-29T06:02:32;99851.44;;;10.46;80.56
75740;BME280;64357;51.344;6.550;2022-12-29T06:04:57;99846.56;;;10.49;80.65
75740;BME280;64357;51.344;6.550;2022-12-29T06:07:25;99850.28;;;10.53;80.34
75740;BME280;64357;51.344;6.550;2022-12-29T06:09:50;99853.84;;;10.55;80.42
75740;BME280;64357;51.344;6.550;2022-12-29T06:12:15;99867.91;;;10.50;80.79
75740;BME280;64357;51.344;6.550;2022-12-29T06:14:41;99863.81;;;10.41;80.49
75740;BME280;64357;51.344;6.550;2022-12-29T06:17:07;99862.66;;;10.48;80.00
75740;BME280;64357;51.344;6.550;2022-12-29T06:19:32;99871.59;;;10.53;79.63
75740;BME280;64357;51.344;6.550;2022-12-29T06:21:57;99886.03;;;10.63;78.81
75740;BME280;64357;51.344;6.550;2022-12-29T06:24:22;99889.50;;;10.74;78.16
75740;BME280;64357;51.344;6.550;2022-12-29T06:26:48;99879.25;;;10.84;77.36
75740;BME280;64357;51.344;6.550;2022-12-29T06:29:13;99867.41;;;10.74;77.03
75740;BME280;64357;51.344;6.550;2022-12-29T06:31:42;99887.81;;;10.84;77.11
75740;BME280;64357;51.344;6.550;2022-12-29T06:34:08;99881.19;;;10.97;76.54
75740;BME280;64357;51.344;6.550;2022-12-29T06:36:34;99894.84;;;10.97;75.89
75740;BME280;64357;51.344;6.550;2022-12-29T06:38:59;99882.03;;;11.07;75.20
75740;BME280;64357;51.344;6.550;2022-12-29T06:41:24;99884.59;;;11.07;75.34
75740;BME280;64357;51.344;6.550;2022-12-29T06:43:50;99873.47;;;11.07;74.92
75740;BME280;64357;51.344;6.550;2022-12-29T06:46:15;99890.47;;;11.06;74.94
75740;BME280;64357;51.344;6.550;2022-12-29T06:48:40;99895.19;;;11.02;75.34
75740;BME280;64357;51.344;6.550;2022-12-29T06:51:07;99894.31;;;11.01;75.20
75740;BME280;64357;51.344;6.550;2022-12-29T06:53:33;99883.19;;;11.01;74.85
75740;BME280;64357;51.344;6.550;2022-12-29T06:55:58;99889.19;;;11.01;74.78
75740;BME280;64357;51.344;6.550;2022-12-29T06:58:23;99891.09;;;11.14;74.36
75740;BME280;64357;51.344;6.550;2022-12-29T07:00:48;99887.41;;;11.10;74.11
75740;BME280;64357;51.344;6.550;2022-12-29T07:03:14;99895.47;;;11.15;73.28
75740;BME280;64357;51.344;6.550;2022-12-29T07:05:42;99893.91;;;11.17;73.51
75740;BME280;64357;51.344;6.550;2022-12-29T07:08:10;99891.47;;;11.18;72.73
75740;BME280;64357;51.344;6.550;2022-12-29T07:10:35;99911.81;;;11.17;72.95
75740;BME280;64357;51.344;6.550;2022-12-29T07:13:00;99908.88;;;11.12;73.32
75740;BME280;64357;51.344;6.550;2022-12-29T07:15:30;99912.69;;;11.28;72.82
75740;BME280;64357;51.344;6.550;2022-12-29T07:17:56;99901.47;;;11.15;73.08
75740;BME280;64357;51.344;6.550;2022-12-29T07:20:21;99910.13;;;11.17;72.47
75740;BME280;64357;51.344;6.550;2022-12-29T07:22:46;99919.63;;;11.08;73.69
75740;BME280;64357;51.344;6.550;2022-12-29T07:25:12;99931.75;;;11.01;73.53
75740;BME280;64357;51.344;6.550;2022-12-29T07:27:37;99920.75;;;11.02;72.34
75740;BME280;64357;51.344;6.550;2022-12-29T07:30:05;99928.31;;;11.00;72.78
75740;BME280;64357;51.344;6.550;2022-12-29T07:32:33;99934.69;;;10.95;72.52
75740;BME280;64357;51.344;6.550;2022-12-29T07:34:59;99926.00;;;11.03;71.71
75740;BME280;64357;51.344;6.550;2022-12-29T07:37:26;99942.47;;;11.07;71.37
75740;BME280;64357;51.344;6.550;2022-12-29T07:39:54;99925.00;;;10.91;71.40
75740;BME280;64357;51.344;6.550;2022-12-29T07:42:20;99941.97;;;11.01;71.80
75740;BME280;64357;51.344;6.550;2022-12-29T07:44:45;99929.72;;;10.97;71.14
75740;BME280;64357;51.344;6.550;2022-12-29T07:47:15;99946.56;;;10.94;71.20
75740;BME280;64357;51.344;6.550;2022-12-29T07:49:40;99948.88;;;10.91;71.43
75740;BME280;64357;51.344;6.550;2022-12-29T07:52:05;99944.91;;;10.95;70.69
75740;BME280;64357;51.344;6.550;2022-12-29T07:54:33;99955.25;;;11.07;69.61
75740;BME280;64357;51.344;6.550;2022-12-29T07:56:58;99956.31;;;11.09;69.95
75740;BME280;64357;51.344;6.550;2022-12-29T07:59:27;99958.84;;;10.99;70.73
75740;BME280;64357;51.344;6.550;2022-12-29T08:01:53;99958.72;;;10.97;70.90
75740;BME280;64357;51.344;6.550;2022-12-29T08:04:20;99968.19;;;10.98;70.49
75740;BME280;64357;51.344;6.550;2022-12-29T08:06:45;99971.88;;;10.81;71.31
75740;BME280;64357;51.344;6.550;2022-12-29T08:09:11;99975.84;;;10.88;71.53
75740;BME280;64357;51.344;6.550;2022-12-29T08:11:39;99971.88;;;10.91;71.14
75740;BME280;64357;51.344;6.550;2022-12-29T08:14:07;99977.34;;;10.96;70.90
75740;BME280;64357;51.344;6.550;2022-12-29T08:16:35;99993.47;;;11.05;70.77
75740;BME280;64357;51.344;6.550;2022-12-29T08:19:01;99979.91;;;10.96;70.70
75740;BME280;64357;51.344;6.550;2022-12-29T08:21:27;99989.75;;;11.02;70.69
75740;BME280;64357;51.344;6.550;2022-12-29T08:23:55;99991.41;;;11.01;70.82
75740;BME280;64357;51.344;6.550;2022-12-29T08:26:21;99995.53;;;10.99;71.40
75740;BME280;64357;51.344;6.550;2022-12-29T08:28:46;99998.19;;;11.01;71.49
75740;BME280;64357;51.344;6.550;2022-12-29T08:31:12;99995.25;;;11.06;70.55
75740;BME280;64357;51.344;6.550;2022-12-29T08:33:37;99992.97;;;10.99;71.20
75740;BME280;64357;51.344;6.550;2022-12-29T08:36:06;99997.69;;;11.05;70.91
75740;BME280;64357;51.344;6.550;2022-12-29T08:38:32;100005.75;;;10.99;71.42
75740;BME280;64357;51.344;6.550;2022-12-29T08:40:59;99996.66;;;10.92;70.93
75740;BME280;64357;51.344;6.550;2022-12-29T08:43:27;99981.72;;;10.87;70.25
75740;BME280;64357;51.344;6.550;2022-12-29T08:45:53;100000.88;;;10.82;70.79
75740;BME280;64357;51.344;6.550;2022-12-29T08:48:21;99986.03;;;10.78;70.96
75740;BME280;64357;51.344;6.550;2022-12-29T08:50:50;100016.41;;;10.64;70.99
75740;BME280;64357;51.344;6.550;2022-12-29T08:53:18;100007.47;;;10.59;71.65
75740;BME280;64357;51.344;6.550;2022-12-29T08:55:51;100013.84;;;10.54;71.74
75740;BME280;64357;51.344;6.550;2022-12-29T08:58:23;100023.53;;;10.48;71.80
75740;BME280;64357;51.344;6.550;2022-12-29T09:00:52;100017.44;;;10.56;71.48
75740;BME280;64357;51.344;6.550;2022-12-29T09:03:17;100026.84;;;10.47;71.51
75740;BME280;64357;51.344;6.550;2022-12-29T09:05:46;100023.91;;;10.53;71.97
75740;BME280;64357;51.344;6.550;2022-12-29T09:08:15;100025.25;;;10.68;71.56
75740;BME280;64357;51.344;6.550;2022-12-29T09:10:40;100009.31;;;10.81;71.28
75740;BME280;64357;51.344;6.550;2022-12-29T09:13:08;100010.59;;;10.86;70.77
75740;BME280;64357;51.344;6.550;2022-12-29T09:15:33;100003.81;;;10.86;70.49
75740;BME280;64357;51.344;6.550;2022-12-29T09:18:02;100014.44;;;10.91;70.32
75740;BME280;64357;51.344;6.550;2022-12-29T09:20:27;100013.78;;;10.93;70.38
75740;BME280;64357;51.344;6.550;2022-12-29T09:22:52;100028.47;;;10.96;70.29
75740;BME280;64357;51.344;6.550;2022-12-29T09:25:18;100018.63;;;11.01;70.10
75740;BME280;64357;51.344;6.550;2022-12-29T09:27:45;100022.84;;;11.00;70.29
75740;BME280;64357;51.344;6.550;2022-12-29T09:30:12;100001.63;;;11.01;69.59
75740;BME280;64357;51.344;6.550;2022-12-29T09:32:37;100014.41;;;11.01;69.35
75740;BME280;64357;51.344;6.550;2022-12-29T09:35:03;100025.94;;;11.06;69.32
75740;BME280;64357;51.344;6.550;2022-12-29T09:37:32;100008.28;;;10.99;69.19
75740;BME280;64357;51.344;6.550;2022-12-29T09:39:57;100022.09;;;11.01;68.60
75740;BME280;64357;51.344;6.550;2022-12-29T09:42:31;100024.91;;;11.04;68.26
75740;BME280;64357;51.344;6.550;2022-12-29T09:45:15;100026.03;;;11.08;67.46
75740;BME280;64357;51.344;6.550;2022-12-29T09:47:45;100012.25;;;11.06;68.06
75740;BME280;64357;51.344;6.550;2022-12-29T09:52:51;100033.34;;;11.03;67.15
75740;BME280;64357;51.344;6.550;2022-12-29T09:55:21;100036.66;;;11.02;67.60
75740;BME280;64357;51.344;6.550;2022-12-29T09:57:56;100031.41;;;11.01;67.18
75740;BME280;64357;51.344;6.550;2022-12-29T10:00:38;100041.53;;;10.99;67.63
75740;BME280;64357;51.344;6.550;2022-12-29T10:03:17;100031.03;;;10.96;67.24
75740;BME280;64357;51.344;6.550;2022-12-29T10:08:34;100047.78;;;10.92;67.15
75740;BME280;64357;51.344;6.550;2022-12-29T10:25:17;100049.97;;;10.98;65.61
75740;BME280;64357;51.344;6.550;2022-12-29T10:27:47;100059.81;;;11.04;65.16
75740;BME280;64357;51.344;6.550;2022-12-29T10:30:14;100040.63;;;10.99;64.97
75740;BME280;64357;51.344;6.550;2022-12-29T10:32:47;100063.13;;;11.03;65.29
75740;BME280;64357;51.344;6.550;2022-12-29T10:37:59;100055.31;;;11.11;65.24
75740;BME280;64357;51.344;6.550;2022-12-29T10:40:53;100055.31;;;11.11;65.12
75740;BME280;64357;51.344;6.550;2022-12-29T10:43:31;100065.84;;;11.14;65.22
75740;BME280;64357;51.344;6.550;2022-12-29T10:46:02;100064.00;;;11.13;65.11
75740;BME280;64357;51.344;6.550;2022-12-29T10:48:33;100070.69;;;11.21;64.49
75740;BME280;64357;51.344;6.550;2022-12-29T10:51:04;100080.91;;;11.21;64.70
75740;BME280;64357;51.344;6.550;2022-12-29T10:53:58;100079.66;;;11.27;64.33
75740;BME280;64357;51.344;6.550;2022-12-29T10:56:45;100081.53;;;11.19;64.41
75740;BME280;64357;51.344;6.550;2022-12-29T10:59:21;100071.31;;;11.29;64.36
75740;BME280;64357;51.344;6.550;2022-12-29T11:07:23;100093.56;;;11.30;64.21
75740;BME280;64357;51.344;6.550;2022-12-29T11:09:50;100094.84;;;11.35;64.13
75740;BME280;64357;51.344;6.550;2022-12-29T11:15:13;100130.50;;;11.24;64.00
75740;BME280;64357;51.344;6.550;2022-12-29T11:17:50;100116.69;;;11.21;64.28
75740;BME280;64357;51.344;6.550;2022-12-29T11:22:59;100119.25;;;11.21;64.06
75740;BME280;64357;51.344;6.550;2022-12-29T11:25:25;100114.16;;;11.32;63.81
75740;BME280;64357;51.344;6.550;2022-12-29T11:28:03;100118.34;;;11.31;64.14
75740;BME280;64357;51.344;6.550;2022-12-29T11:30:38;100099.56;;;11.41;63.26
75740;BME280;64357;51.344;6.550;2022-12-29T11:33:10;100111.22;;;11.27;63.27
75740;BME280;64357;51.344;6.550;2022-12-29T11:35:41;100119.91;;;11.29;63.04
75740;BME280;64357;51.344;6.550;2022-12-29T11:38:22;100129.50;;;11.42;63.25
75740;BME280;64357;51.344;6.550;2022-12-29T11:40:49;100129.75;;;11.35;62.76
75740;BME280;64357;51.344;6.550;2022-12-29T11:43:24;100134.47;;;11.30;62.93
75740;BME280;64357;51.344;6.550;2022-12-29T11:45:53;100134.06;;;11.26;63.18
75740;BME280;64357;51.344;6.550;2022-12-29T11:48:20;100150.69;;;11.31;63.16
75740;BME280;64357;51.344;6.550;2022-12-29T11:50:53;100161.97;;;11.33;62.88
75740;BME280;64357;51.344;6.550;2022-12-29T11:56:14;100152.88;;;11.26;63.30
75740;BME280;64357;51.344;6.550;2022-12-29T11:58:43;100144.84;;;11.32;63.29
75740;BME280;64357;51.344;6.550;2022-12-29T12:01:22;100159.16;;;11.30;63.21
75740;BME280;64357;51.344;6.550;2022-12-29T12:04:02;100152.38;;;11.20;63.29
75740;BME280;64357;51.344;6.550;2022-12-29T12:06:31;100158.75;;;11.15;63.55
75740;BME280;64357;51.344;6.550;2022-12-29T12:09:07;100162.59;;;11.20;63.56
75740;BME280;64357;51.344;6.550;2022-12-29T12:11:39;100162.44;;;11.18;63.95
75740;BME280;64357;51.344;6.550;2022-12-29T12:16:52;100166.53;;;11.16;63.67
75740;BME280;64357;51.344;6.550;2022-12-29T12:19:42;100169.34;;;11.19;63.77
75740;BME280;64357;51.344;6.550;2022-12-29T12:27:43;100167.06;;;11.23;63.50
75740;BME280;64357;51.344;6.550;2022-12-29T12:30:19;100173.06;;;11.23;63.68
75740;BME280;64357;51.344;6.550;2022-12-29T12:40:59;100181.13;;;11.28;63.86
75740;BME280;64357;51.344;6.550;2022-12-29T12:43:39;100174.25;;;11.27;63.85
75740;BME280;64357;51.344;6.550;2022-12-29T13:00:16;100185.59;;;11.20;63.88
75740;BME280;64357;51.344;6.550;2022-12-29T13:03:08;100185.28;;;11.07;64.40
75740;BME280;64357;51.344;6.550;2022-12-29T13:05:40;100201.38;;;11.06;64.89
75740;BME280;64357;51.344;6.550;2022-12-29T13:08:44;100195.25;;;11.04;64.79
75740;BME280;64357;51.344;6.550;2022-12-29T13:16:54;100217.44;;;10.94;64.99
75740;BME280;64357;51.344;6.550;2022-12-29T13:22:08;100209.53;;;10.91;65.55
75740;BME280;64357;51.344;6.550;2022-12-29T13:29:47;100227.00;;;10.87;65.89
75740;BME280;64357;51.344;6.550;2022-12-29T13:37:54;100224.56;;;10.88;65.05
75740;BME280;64357;51.344;6.550;2022-12-29T13:40:24;100219.59;;;10.90;65.00
75740;BME280;64357;51.344;6.550;2022-12-29T13:42:54;100230.69;;;10.90;64.78
75740;BME280;64357;51.344;6.550;2022-12-29T13:45:22;100211.91;;;10.90;64.84
75740;BME280;64357;51.344;6.550;2022-12-29T13:50:25;100223.03;;;10.90;64.46
75740;BME280;64357;51.344;6.550;2022-12-29T13:56:05;100202.34;;;10.87;64.76
75740;BME280;64357;51.344;6.550;2022-12-29T13:58:34;100228.31;;;10.92;65.09
75740;BME280;64357;51.344;6.550;2022-12-29T14:01:06;100225.81;;;10.83;64.95
75740;BME280;64357;51.344;6.550;2022-12-29T14:03:44;100247.78;;;10.81;64.91
75740;BME280;64357;51.344;6.550;2022-12-29T14:08:55;100234.00;;;10.79;64.92
75740;BME280;64357;51.344;6.550;2022-12-29T14:11:29;100243.13;;;10.96;64.73
75740;BME280;64357;51.344;6.550;2022-12-29T14:13:58;100231.75;;;10.92;64.57
75740;BME280;64357;51.344;6.550;2022-12-29T14:16:27;100240.38;;;11.03;64.01
75740;BME280;64357;51.344;6.550;2022-12-29T14:18:55;100243.06;;;11.05;64.10
75740;BME280;64357;51.344;6.550;2022-12-29T14:21:27;100236.50;;;10.98;64.25
75740;BME280;64357;51.344;6.550;2022-12-29T14:26:45;100238.16;;;10.98;64.10
75740;BME280;64357;51.344;6.550;2022-12-29T14:31:48;100264.69;;;10.89;64.63
75740;BME280;64357;51.344;6.550;2022-12-29T14:36:59;100264.75;;;11.00;64.43
75740;BME280;64357;51.344;6.550;2022-12-29T14:39:30;100267.78;;;10.95;64.39
75740;BME280;64357;51.344;6.550;2022-12-29T14:44:25;100251.53;;;10.85;64.63
75740;BME280;64357;51.344;6.550;2022-12-29T14:49:24;100258.69;;;10.89;64.38
75740;BME280;64357;51.344;6.550;2022-12-29T14:52:04;100256.41;;;10.92;64.44
75740;BME280;64357;51.344;6.550;2022-12-29T14:57:00;100271.13;;;10.76;64.92
75740;BME280;64357;51.344;6.550;2022-12-29T14:59:28;100267.56;;;10.74;65.01
75740;BME280;64357;51.344;6.550;2022-12-29T15:01:55;100277.50;;;10.71;65.15
75740;BME280;64357;51.344;6.550;2022-12-29T15:04:25;100276.25;;;10.76;65.16
75740;BME280;64357;51.344;6.550;2022-12-29T15:06:54;100278.25;;;10.70;65.33
75740;BME280;64357;51.344;6.550;2022-12-29T15:12:21;100280.00;;;10.79;65.14
75740;BME280;64357;51.344;6.550;2022-12-29T15:14:58;100294.00;;;10.74;65.26
75740;BME280;64357;51.344;6.550;2022-12-29T15:17:32;100275.22;;;10.74;65.38
75740;BME280;64357;51.344;6.550;2022-12-29T15:20:20;100276.72;;;10.72;65.20
75740;BME280;64357;51.344;6.550;2022-12-29T15:22:58;100280.38;;;10.65;65.51
75740;BME280;64357;51.344;6.550;2022-12-29T15:25:25;100286.41;;;10.65;65.27
75740;BME280;64357;51.344;6.550;2022-12-29T15:27:53;100286.69;;;10.68;65.23
75740;BME280;64357;51.344;6.550;2022-12-29T15:30:20;100292.06;;;10.53;65.82
75740;BME280;64357;51.344;6.550;2022-12-29T15:32:49;100309.16;;;10.54;65.95
75740;BME280;64357;51.344;6.550;2022-12-29T15:37:51;100304.69;;;10.51;65.33
75740;BME280;64357;51.344;6.550;2022-12-29T15:45:34;100336.06;;;10.31;66.47